Time;durP1;ratioP1;P1;durP2;ratioP2;P2;SDS_P1;SDS_P2;PMS_P1;PMS_P2;Temp;Humidity;BMP_temperature;BMP_pressure;BME280_temperature;BME280_humidity;BME280_pressure;Samples;Min_cycle;Max_cycle;Signal;HPM_P1;HPM_P2
2020/12/24 04:28:14;;;;;;;28.12;14.58;;;;;;;1.36;90.07;99407.75;1776992;79;22690;-72
2020/12/24 04:30:47;;;;;;;22.50;13.85;;;;;;;1.34;90.10;99398.80;1749623;82;21076;-73
2020/12/24 04:33:12;;;;;;;18.65;12.23;;;;;;;1.44;90.03;99403.42;1749430;82;21386;-73
2020/12/24 04:35:40;;;;;;;18.25;12.28;;;;;;;1.49;89.87;99402.97;1749566;82;20934;-73
2020/12/24 04:38:09;;;;;;;15.63;11.25;;;;;;;1.58;89.88;99400.80;1749612;82;21127;-72
2020/12/24 04:40:37;;;;;;;15.60;11.10;;;;;;;1.62;89.50;99398.17;1749598;82;21128;-72
2020/12/24 04:43:04;;;;;;;16.20;11.35;;;;;;;1.64;89.49;99402.86;1749627;81;21101;-73
2020/12/24 04:45:32;;;;;;;14.18;10.10;;;;;;;1.73;89.70;99397.69;1749689;82;22124;-73
2020/12/24 04:48:00;;;;;;;15.10;11.40;;;;;;;1.85;89.57;99398.02;1749518;82;21020;-73
2020/12/24 04:50:29;;;;;;;16.23;12.05;;;;;;;1.99;89.34;99401.78;1749596;82;20981;-72
2020/12/24 04:52:57;;;;;;;19.10;12.55;;;;;;;2.08;89.03;99397.41;1749574;82;21123;-72
2020/12/24 04:55:26;;;;;;;16.40;11.80;;;;;;;2.17;88.74;99396.92;1749705;82;21464;-72
2020/12/24 04:57:53;;;;;;;17.23;11.33;;;;;;;2.22;88.61;99390.00;1749592;82;21205;-72
2020/12/24 05:00:21;;;;;;;13.72;10.08;;;;;;;2.30;88.39;99387.80;1749563;82;21072;-72
2020/12/24 05:03:08;;;;;;;17.60;11.88;;;;;;;2.38;88.15;99382.61;1720501;82;21572;-73
2020/12/24 05:05:37;;;;;;;19.23;11.90;;;;;;;2.43;87.84;99380.81;1749615;82;21151;-72
2020/12/24 05:08:07;;;;;;;21.95;12.53;;;;;;;2.48;87.71;99372.64;1749675;82;21080;-72
2020/12/24 05:10:37;;;;;;;21.02;11.65;;;;;;;2.53;87.50;99386.72;1719275;83;21377;-72
2020/12/24 05:13:20;;;;;;;18.60;11.03;;;;;;;2.54;87.18;99376.87;1719360;83;21111;-72
2020/12/24 05:15:48;;;;;;;21.48;12.85;;;;;;;2.55;87.17;99378.14;1717662;82;21575;-72
2020/12/24 05:18:18;;;;;;;17.48;11.18;;;;;;;2.56;86.78;99382.41;1690412;84;21123;-73
2020/12/24 05:20:47;;;;;;;16.85;10.98;;;;;;;2.56;86.87;99378.56;1690504;84;21177;-73
2020/12/24 05:23:17;;;;;;;25.97;13.53;;;;;;;2.57;86.68;99375.56;1690502;84;22904;-73
2020/12/24 05:25:54;;;;;;;23.25;11.83;;;;;;;2.64;86.68;99372.89;1873670;76;22641;-73
2020/12/24 05:28:24;;;;;;;17.90;11.50;;;;;;;2.58;86.28;99365.28;1841550;78;21469;-73
2020/12/24 05:30:52;;;;;;;22.65;15.60;;;;;;;2.56;86.13;99361.02;1841602;78;21356;-73
2020/12/24 05:33:34;;;;;;;21.15;14.18;;;;;;;2.52;86.09;99364.05;1841530;78;20950;-73
2020/12/24 05:36:20;;;;;;;21.62;13.10;;;;;;;2.50;86.09;99372.20;1841596;78;21061;-73
2020/12/24 05:38:49;;;;;;;18.52;11.80;;;;;;;2.49;86.04;99367.08;1841505;77;21611;-73
2020/12/24 05:41:29;;;;;;;16.85;11.28;;;;;;;2.47;86.03;99367.52;1841600;78;20891;-73
2020/12/24 05:44:02;;;;;;;16.97;9.78;;;;;;;2.39;85.84;99365.91;1841564;78;21356;-73
2020/12/24 05:46:48;;;;;;;15.93;10.00;;;;;;;2.38;86.11;99363.36;1841549;77;20986;-72
2020/12/24 05:49:21;;;;;;;20.88;10.50;;;;;;;2.41;86.24;99364.58;1841524;77;21478;-72
2020/12/24 05:52:02;;;;;;;19.35;12.78;;;;;;;2.41;86.14;99359.45;1840047;77;21514;-72
2020/12/24 05:54:30;;;;;;;22.00;13.32;;;;;;;2.46;86.18;99361.54;1841548;78;21125;-72
2020/12/24 05:56:58;;;;;;;35.63;19.17;;;;;;;2.49;85.91;99368.36;1841518;78;21174;-72
2020/12/24 05:59:30;;;;;;;25.60;13.93;;;;;;;2.48;85.97;99359.81;1841461;78;21144;-72
2020/12/24 06:02:17;;;;;;;32.73;16.70;;;;;;;2.52;85.91;99364.05;1841508;78;21081;-73
2020/12/24 06:04:48;;;;;;;58.05;23.95;;;;;;;2.50;85.66;99358.52;1841495;78;21053;-72
2020/12/24 06:07:30;;;;;;;57.53;25.85;;;;;;;2.45;85.81;99359.84;1841689;77;21148;-72
2020/12/24 06:10:07;;;;;;;33.50;16.05;;;;;;;2.42;86.03;99362.43;1841530;77;21198;-72
2020/12/24 06:12:43;;;;;;;33.45;17.60;;;;;;;2.43;85.96;99355.16;1841462;77;21073;-73
2020/12/24 06:15:11;;;;;;;36.13;20.95;;;;;;;2.47;85.99;99354.25;1840759;78;21085;-73
2020/12/24 06:17:39;;;;;;;37.38;21.12;;;;;;;2.52;85.99;99348.65;1785293;79;21834;-76
2020/12/24 06:20:07;;;;;;;26.30;15.28;;;;;;;2.60;85.94;99353.24;1808567;78;21572;-73
2020/12/24 06:22:35;;;;;;;18.75;11.22;;;;;;;2.63;85.77;99357.06;1808494;78;22185;-68
2020/12/24 06:25:02;;;;;;;15.72;10.55;;;;;;;2.68;85.80;99351.45;1808177;79;21068;-70
2020/12/24 06:27:51;;;;;;;13.18;8.48;;;;;;;2.74;85.40;99347.54;1774447;79;21100;-74
2020/12/24 06:30:25;;;;;;;14.73;9.08;;;;;;;2.75;85.36;99348.39;1805523;78;21140;-73
2020/12/24 06:32:54;;;;;;;13.25;8.60;;;;;;;2.80;85.19;99350.44;1805766;78;21081;-73
2020/12/24 06:35:39;;;;;;;23.18;11.60;;;;;;;2.80;84.99;99350.44;1808328;78;21361;-72
2020/12/24 06:38:08;;;;;;;17.55;9.88;;;;;;;2.79;84.73;99353.06;1807828;78;21144;-75
2020/12/24 06:40:39;;;;;;;18.80;8.83;;;;;;;2.69;84.84;99357.44;1779147;79;21600;-73
2020/12/24 06:43:09;;;;;;;11.40;7.40;;;;;;;2.66;84.98;99357.47;1807860;79;21171;-72
2020/12/24 06:45:39;;;;;;;14.25;8.35;;;;;;;2.62;84.91;99358.36;1807645;78;21192;-73
2020/12/24 06:48:21;;;;;;;14.07;8.43;;;;;;;2.60;84.99;99341.69;1807969;79;22244;-72
2020/12/24 06:50:51;;;;;;;13.08;8.00;;;;;;;2.61;85.13;99333.55;1807709;78;21113;-72
2020/12/24 06:53:33;;;;;;;15.55;9.50;;;;;;;2.62;85.06;99335.25;1807898;78;21553;-73
2020/12/24 06:56:23;;;;;;;13.32;7.80;;;;;;;2.65;85.28;99337.36;1807942;78;21049;-72
2020/12/24 06:59:01;;;;;;;10.88;7.80;;;;;;;2.68;85.03;99349.31;1807799;78;21087;-73
2020/12/24 07:01:32;;;;;;;11.35;8.38;;;;;;;2.66;85.11;99348.05;1807856;78;22188;-73
2020/12/24 07:04:01;;;;;;;15.80;9.73;;;;;;;2.72;85.12;99342.85;1807666;78;21549;-74
2020/12/24 07:06:49;;;;;;;12.73;8.40;;;;;;;2.76;84.96;99339.38;1806514;78;21148;-73
2020/12/24 07:09:30;;;;;;;15.32;9.60;;;;;;;2.78;84.79;99337.23;1804596;78;21156;-73
2020/12/24 07:12:00;;;;;;;10.85;7.72;;;;;;;2.76;84.65;99330.39;1806448;78;21124;-73
2020/12/24 07:14:32;;;;;;;14.03;7.70;;;;;;;2.74;84.55;99329.56;1807784;79;21369;-73
2020/12/24 07:17:15;;;;;;;11.78;8.73;;;;;;;2.70;84.55;99322.76;1807884;78;21133;-73
2020/12/24 07:19:44;;;;;;;11.53;8.50;;;;;;;2.71;84.59;99328.31;1807995;79;21454;-72
2020/12/24 07:22:16;;;;;;;14.50;8.85;;;;;;;2.75;84.69;99318.86;1807769;78;21041;-74
2020/12/24 07:24:56;;;;;;;10.55;8.10;;;;;;;2.84;84.73;99316.16;1809235;79;21073;-73
2020/12/24 07:27:24;;;;;;;11.63;8.83;;;;;;;2.88;84.32;99313.12;1786635;79;21368;-74
2020/12/24 07:29:51;;;;;;;12.00;8.68;;;;;;;2.88;84.28;99308.83;1813376;79;21061;-73
2020/12/24 07:32:19;;;;;;;12.07;8.03;;;;;;;2.88;84.26;99312.69;1813441;78;21084;-72
2020/12/24 07:34:50;;;;;;;12.28;9.05;;;;;;;2.94;84.28;99310.05;1813488;78;21140;-75
2020/12/24 07:37:22;;;;;;;15.78;10.20;;;;;;;2.99;84.34;99317.70;1813701;78;21136;-74
2020/12/24 07:39:53;;;;;;;16.93;12.60;;;;;;;3.08;84.30;99315.84;1787058;79;21361;-74
2020/12/24 07:42:24;;;;;;;13.83;8.43;;;;;;;3.12;83.90;99311.51;1813459;78;21171;-74
2020/12/24 07:44:52;;;;;;;12.73;8.30;;;;;;;3.11;83.82;99302.09;1795491;79;21057;-76
2020/12/24 07:47:19;;;;;;;15.30;9.83;;;;;;;3.15;83.56;99298.63;1781431;80;21199;-77
2020/12/24 07:49:51;;;;;;;12.68;9.30;;;;;;;3.17;83.39;99290.89;1781464;79;21171;-73
2020/12/24 07:52:19;;;;;;;12.47;8.80;;;;;;;3.19;83.51;99291.28;1781405;79;21336;-75
2020/12/24 07:54:53;;;;;;;11.63;7.70;;;;;;;3.23;83.16;99296.77;1781443;80;21631;-73
2020/12/24 07:57:22;;;;;;;10.00;7.47;;;;;;;3.17;82.86;99295.59;1756891;80;21104;-76
2020/12/24 08:00:00;;;;;;;14.95;8.33;;;;;;;3.14;82.99;99293.50;1781438;80;21112;-76
2020/12/24 08:02:29;;;;;;;15.38;11.25;;;;;;;3.10;83.15;99294.83;1781585;79;21184;-79
2020/12/24 08:04:57;;;;;;;14.60;10.18;;;;;;;3.13;83.25;99303.36;1781446;79;21152;-84
2020/12/24 08:07:30;;;;;;;16.73;12.65;;;;;;;3.15;83.15;99310.19;1781425;79;21045;-75
2020/12/24 08:10:11;;;;;;;14.38;9.43;;;;;;;3.17;83.11;99310.17;1781519;80;21116;-72
2020/12/24 08:12:41;;;;;;;13.25;8.98;;;;;;;3.18;82.90;99305.01;1781563;80;21120;-75
2020/12/24 08:15:18;;;;;;;13.98;9.70;;;;;;;3.18;82.98;99303.72;1781689;79;21582;-67
2020/12/24 08:17:58;;;;;;;14.18;9.80;;;;;;;3.19;83.01;99307.99;1781725;79;21596;-74
2020/12/24 08:20:47;;;;;;;10.93;7.60;;;;;;;3.23;83.07;99300.63;1781341;79;21518;-82
2020/12/24 08:23:44;;;;;;;10.72;7.12;;;;;;;3.30;82.96;99300.11;1778718;80;21167;-76
2020/12/24 08:26:14;;;;;;;9.10;7.20;;;;;;;3.31;82.78;99305.66;1801124;78;21064;-73
2020/12/24 08:28:55;;;;;;;9.45;7.30;;;;;;;3.32;82.77;99303.08;1789887;79;21192;-74
2020/12/24 08:31:25;;;;;;;9.53;6.70;;;;;;;3.38;82.83;99308.57;1758246;80;21540;-78
2020/12/24 08:33:54;;;;;;;9.98;7.10;;;;;;;3.49;82.71;99308.39;1749974;80;21177;-79
2020/12/24 08:36:28;;;;;;;12.10;7.80;;;;;;;3.52;82.48;99310.48;1750468;81;21517;-76
2020/12/24 08:39:08;;;;;;;11.30;8.38;;;;;;;3.58;82.52;99305.25;1750555;82;21087;-76
2020/12/24 08:41:48;;;;;;;11.15;7.17;;;;;;;3.60;82.22;99298.33;1750426;80;21236;-78
2020/12/24 08:44:17;;;;;;;12.63;8.48;;;;;;;3.56;82.01;99295.42;1719599;82;21678;-73
2020/12/24 08:47:06;;;;;;;14.85;8.68;;;;;;;3.55;82.17;99291.16;1720594;83;21327;-78
2020/12/24 08:49:43;;;;;;;17.12;10.30;;;;;;;3.56;82.06;99279.15;1696765;83;21086;-78
2020/12/24 08:52:18;;;;;;;12.73;9.48;;;;;;;3.55;81.99;99274.44;1720638;82;21199;-79
2020/12/24 08:55:08;;;;;;;13.05;8.25;;;;;;;3.52;81.87;99268.05;1720597;82;21078;-80
2020/12/24 08:57:40;;;;;;;14.23;9.30;;;;;;;3.50;81.82;99265.09;1720584;83;21369;-74
2020/12/24 09:00:09;;;;;;;15.30;10.45;;;;;;;3.49;81.83;99255.68;1720499;82;21166;-72
2020/12/24 09:02:37;;;;;;;12.23;8.60;;;;;;;3.48;81.58;99265.12;1720636;83;21621;-73
2020/12/24 09:05:06;;;;;;;10.63;7.55;;;;;;;3.38;81.57;99260.58;1720393;82;21071;-71
2020/12/24 09:07:43;;;;;;;13.00;10.45;;;;;;;3.30;81.84;99254.69;1720625;82;21097;-75
2020/12/24 09:10:20;;;;;;;12.82;9.15;;;;;;;3.28;81.96;99256.87;1720571;82;21832;-79
2020/12/24 09:12:58;;;;;;;27.42;15.72;;;;;;;3.26;82.18;99249.62;1720462;83;21130;-73
2020/12/24 09:15:27;;;;;;;16.93;11.43;;;;;;;3.27;82.19;99244.45;1720523;82;21197;-70
2020/12/24 09:17:59;;;;;;;11.73;7.92;;;;;;;3.32;82.19;99237.52;1715799;82;21098;-69
2020/12/24 09:20:31;;;;;;;10.05;7.22;;;;;;;3.32;81.94;99236.24;1746246;80;21174;-69
2020/12/24 09:23:12;;;;;;;12.70;8.15;;;;;;;3.30;82.07;99237.13;1750470;80;21617;-69
2020/12/24 09:25:46;;;;;;;12.23;7.80;;;;;;;3.33;82.09;99237.94;1750153;80;21165;-71
2020/12/24 09:28:29;;;;;;;14.35;8.00;;;;;;;3.34;81.89;99231.08;1760140;80;21321;-70
2020/12/24 09:31:00;;;;;;;12.60;8.38;;;;;;;3.32;82.06;99227.68;1762120;81;21198;-71
2020/12/24 09:33:28;;;;;;;11.57;8.83;;;;;;;3.37;82.15;99231.88;1761378;81;21198;-71
2020/12/24 09:36:36;;;;;;;17.85;9.68;;;;;;;3.40;82.01;99227.95;1755956;80;21630;-75
2020/12/24 09:39:36;;;;;;;14.70;8.75;;;;;;;3.46;81.96;99217.58;1882787;76;22014;-72
2020/12/24 09:42:20;;;;;;;13.80;9.20;;;;;;;3.40;81.98;99207.38;1845023;77;21699;-73
2020/12/24 09:45:02;;;;;;;12.55;7.83;;;;;;;3.38;81.90;99200.60;1771193;77;22091;-73
2020/12/24 09:47:38;;;;;;;13.85;8.45;;;;;;;3.35;82.04;99194.22;1844768;77;21200;-69
2020/12/24 09:50:06;;;;;;;12.73;9.15;;;;;;;3.33;81.94;99194.67;1846043;77;21763;-69
2020/12/24 09:52:36;;;;;;;12.37;8.25;;;;;;;3.27;82.22;99188.34;1846006;77;21180;-74
2020/12/24 09:59:06;;;;;;;12.53;8.70;;;;;;;3.18;82.33;99173.09;1838382;77;21293;-73
2020/12/24 10:01:37;;;;;;;11.00;7.95;;;;;;;3.18;82.62;99165.38;1846021;77;21607;-74
2020/12/24 10:04:06;;;;;;;11.73;7.87;;;;;;;3.24;82.65;99162.69;1847034;77;21046;-72
2020/12/24 10:06:34;;;;;;;11.65;8.15;;;;;;;3.23;82.46;99163.13;1849537;77;21469;-75
2020/12/24 10:09:02;;;;;;;12.23;8.53;;;;;;;3.20;82.62;99154.17;1848493;77;21176;-73
2020/12/24 10:11:30;;;;;;;14.63;9.78;;;;;;;3.15;82.76;99156.00;1848053;77;22250;-72
2020/12/24 10:13:57;;;;;;;18.80;12.60;;;;;;;3.15;83.05;99149.58;1846298;77;21152;-74
2020/12/24 10:16:27;;;;;;;11.80;8.60;;;;;;;3.17;83.27;99139.27;1771366;81;21219;-72
2020/12/24 10:18:55;;;;;;;12.43;8.80;;;;;;;3.19;83.25;99141.38;1811923;79;21184;-76
2020/12/24 10:21:25;;;;;;;13.13;9.70;;;;;;;3.21;83.12;99146.87;1813747;78;21118;-72
2020/12/24 10:23:52;;;;;;;13.22;9.33;;;;;;;3.19;83.11;99136.24;1813412;78;21260;-73
2020/12/24 10:26:23;;;;;;;13.90;9.45;;;;;;;3.16;83.23;99132.00;1813020;79;21238;-72
2020/12/24 10:28:52;;;;;;;14.40;10.00;;;;;;;3.14;83.19;99129.04;1813105;79;21211;-74
2020/12/24 10:31:19;;;;;;;15.60;10.23;;;;;;;3.12;83.33;99125.21;1784419;79;21143;-73
2020/12/24 10:33:47;;;;;;;13.18;9.28;;;;;;;3.14;83.38;99120.05;1814644;78;21068;-72
2020/12/24 10:36:25;;;;;;;13.10;9.05;;;;;;;3.16;83.39;99121.72;1814644;78;21408;-73
2020/12/24 10:38:53;;;;;;;15.05;9.98;;;;;;;3.15;83.34;99113.59;1816657;78;21103;-73
2020/12/24 10:41:21;;;;;;;12.45;8.95;;;;;;;3.09;83.44;99103.42;1817849;79;21108;-73
2020/12/24 10:43:48;;;;;;;12.53;8.90;;;;;;;3.04;83.67;99100.92;1816636;78;21158;-73
2020/12/24 10:46:21;;;;;;;14.23;9.70;;;;;;;3.06;83.86;99094.03;1800812;78;21464;-72
2020/12/24 10:48:47;;;;;;;13.35;9.00;;;;;;;3.09;83.90;99093.14;1799870;79;21371;-73
2020/12/24 10:51:15;;;;;;;14.58;9.08;;;;;;;3.14;83.88;99090.50;1799240;79;21056;-75
2020/12/24 10:53:43;;;;;;;13.22;9.28;;;;;;;3.11;83.72;99081.12;1799439;79;21210;-77
2020/12/24 10:56:13;;;;;;;12.13;9.13;;;;;;;3.06;83.73;99082.91;1781599;79;21115;-74
2020/12/24 10:58:45;;;;;;;13.32;9.28;;;;;;;3.00;83.97;99077.43;1799392;79;21126;-82
2020/12/24 11:01:15;;;;;;;14.95;9.18;;;;;;;3.01;84.02;99073.99;1756361;79;21365;-74
2020/12/24 11:03:43;;;;;;;14.98;10.35;;;;;;;3.00;84.11;99072.30;1799504;79;21138;-73
2020/12/24 11:06:24;;;;;;;16.42;10.60;;;;;;;2.99;84.29;99067.21;1800231;79;21598;-74
2020/12/24 11:08:59;;;;;;;14.63;9.95;;;;;;;3.01;84.19;99061.58;1802493;78;21186;-71
2020/12/24 11:11:40;;;;;;;14.55;10.82;;;;;;;3.02;84.16;99057.70;1800418;78;21171;-72
2020/12/24 11:14:10;;;;;;;15.30;10.32;;;;;;;3.00;84.25;99049.61;1784639;78;21378;-76
2020/12/24 11:16:39;;;;;;;14.35;9.33;;;;;;;3.02;84.16;99046.58;1804678;78;21181;-73
2020/12/24 11:19:11;;;;;;;16.07;12.07;;;;;;;3.02;84.09;99042.29;1805315;78;21122;-74
2020/12/24 11:22:46;;;;;;;13.55;9.40;;;;;;;3.02;84.11;99030.73;1809905;78;21114;-74
2020/12/24 11:25:22;;;;;;;12.55;9.28;;;;;;;2.98;84.29;99030.40;1798155;78;21107;-72
2020/12/24 11:27:59;;;;;;;15.18;10.05;;;;;;;2.99;84.46;99029.97;1813896;78;21338;-74
2020/12/24 11:30:28;;;;;;;13.22;9.55;;;;;;;3.00;84.59;99020.06;1818209;78;21469;-73
2020/12/24 11:32:56;;;;;;;13.90;10.05;;;;;;;3.04;84.45;99019.14;1818386;78;21060;-82
2020/12/24 11:35:24;;;;;;;14.80;9.83;;;;;;;3.03;84.34;99017.02;1818592;78;21040;-77
2020/12/24 11:38:01;;;;;;;11.68;8.63;;;;;;;3.01;84.43;99003.78;1813408;77;21825;-71
2020/12/24 11:40:31;;;;;;;14.03;10.15;;;;;;;2.99;84.66;99010.70;1780094;80;21196;-73
2020/12/24 11:42:59;;;;;;;12.15;8.80;;;;;;;3.02;84.65;99001.63;1778237;80;21161;-78
2020/12/24 11:45:29;;;;;;;12.98;9.40;;;;;;;3.03;84.77;98994.33;1780029;79;21513;-78
2020/12/24 11:47:57;;;;;;;13.28;9.30;;;;;;;3.07;84.66;98985.25;1780088;79;21055;-72
2020/12/24 11:50:25;;;;;;;15.18;10.13;;;;;;;3.10;84.67;98987.77;1780017;80;21078;-75
2020/12/24 11:52:54;;;;;;;13.62;9.95;;;;;;;3.13;84.44;98980.45;1780126;79;21118;-71
2020/12/24 11:55:22;;;;;;;20.32;15.63;;;;;;;3.11;84.55;98988.18;1779308;80;21158;-74
2020/12/24 11:57:50;;;;;;;15.72;10.45;;;;;;;3.14;84.44;98992.42;1779204;79;21200;-74
2020/12/24 12:00:19;;;;;;;13.43;8.93;;;;;;;3.12;84.23;98987.74;1775165;79;22287;-76
2020/12/24 12:02:48;;;;;;;11.68;8.45;;;;;;;3.08;84.31;98990.80;1762605;80;21709;-76
2020/12/24 12:05:16;;;;;;;13.30;9.60;;;;;;;3.06;84.29;98981.42;1770575;80;22234;-74
2020/12/24 12:07:45;;;;;;;12.88;10.13;;;;;;;3.05;84.39;98978.45;1771543;81;21211;-74
2020/12/24 12:10:13;;;;;;;13.98;10.00;;;;;;;3.04;84.43;98974.19;1762033;80;21131;-75
2020/12/24 12:12:41;;;;;;;12.50;9.20;;;;;;;3.04;84.46;98976.75;1761624;80;21638;-74
2020/12/24 12:15:13;;;;;;;14.58;9.73;;;;;;;3.04;84.35;98977.59;1760922;81;21182;-76
2020/12/24 12:18:02;;;;;;;14.75;10.20;;;;;;;2.98;84.34;98980.74;1776023;78;21366;-76
2020/12/24 12:20:35;;;;;;;15.65;10.23;;;;;;;2.97;84.59;98981.62;1774365;80;21234;-74
2020/12/24 12:23:06;;;;;;;14.73;10.05;;;;;;;3.00;84.65;98980.25;1774574;80;21512;-75
2020/12/24 12:25:33;;;;;;;15.70;11.22;;;;;;;3.00;84.64;98973.83;1774461;80;21119;-75
2020/12/24 12:28:07;;;;;;;14.47;10.88;;;;;;;3.01;84.63;98975.08;1774839;80;21052;-75
2020/12/24 12:30:36;;;;;;;13.40;9.85;;;;;;;3.00;84.62;98972.54;1749245;80;21489;-76
2020/12/24 12:33:11;;;;;;;14.05;11.53;;;;;;;3.02;84.57;98978.50;1774407;80;21525;-76
2020/12/24 12:35:43;;;;;;;13.40;10.13;;;;;;;2.97;84.52;98970.05;1774898;80;21615;-78
2020/12/24 12:38:13;;;;;;;16.17;11.20;;;;;;;2.98;84.66;98979.45;1776519;79;21142;-75
2020/12/24 12:40:44;;;;;;;17.30;10.32;;;;;;;2.97;84.61;98977.33;1789323;79;21578;-77
2020/12/24 12:43:13;;;;;;;16.62;11.20;;;;;;;2.96;84.58;98974.34;1789138;80;21158;-76
2020/12/24 12:45:43;;;;;;;15.25;11.10;;;;;;;2.93;84.70;98976.12;1789182;80;21585;-75
2020/12/24 12:48:12;;;;;;;17.42;12.45;;;;;;;2.90;84.59;98968.47;1789211;78;21139;-77
2020/12/24 12:50:41;;;;;;;14.63;10.40;;;;;;;2.86;84.73;98971.52;1789070;78;21621;-78
2020/12/24 12:53:08;;;;;;;14.68;10.72;;;;;;;2.85;84.83;98962.13;1789165;78;21082;-79
2020/12/24 12:55:36;;;;;;;13.93;10.03;;;;;;;2.85;85.04;98962.56;1789121;78;22751;-67
2020/12/24 12:58:05;;;;;;;18.32;11.95;;;;;;;2.82;84.94;98956.19;1788858;78;21518;-70
2020/12/24 13:00:33;;;;;;;22.75;15.00;;;;;;;2.79;85.06;98958.84;1788536;78;21147;-67
2020/12/24 13:03:03;;;;;;;18.35;13.30;;;;;;;2.78;85.23;98951.58;1788630;78;21189;-69
2020/12/24 13:05:36;;;;;;;18.00;13.48;;;;;;;2.74;85.26;98945.64;1788163;80;21105;-69
2020/12/24 13:08:06;;;;;;;15.00;11.55;;;;;;;2.73;85.52;98939.25;1787869;78;21465;-72
2020/12/24 13:10:34;;;;;;;16.07;11.93;;;;;;;2.72;85.59;98943.97;1788546;80;21161;-68
2020/12/24 13:13:02;;;;;;;12.93;10.35;;;;;;;2.70;85.68;98944.44;1788692;78;21133;-66
2020/12/24 13:15:37;;;;;;;14.40;10.72;;;;;;;2.70;85.77;98938.86;1788779;78;21077;-70
2020/12/24 13:18:07;;;;;;;17.25;12.07;;;;;;;2.70;85.67;98933.73;1787464;78;21177;-70
2020/12/24 13:20:37;;;;;;;19.42;11.85;;;;;;;2.69;85.98;98932.47;1787269;78;21358;-72
2020/12/24 13:23:08;;;;;;;15.63;10.93;;;;;;;2.73;85.97;98937.97;1787165;78;21255;-72
2020/12/24 13:25:36;;;;;;;15.43;11.22;;;;;;;2.72;85.91;98937.12;1787322;78;21173;-72
2020/12/24 13:28:05;;;;;;;16.62;11.70;;;;;;;2.68;85.96;98925.20;1761478;80;21168;-78
2020/12/24 13:30:35;;;;;;;16.25;11.18;;;;;;;2.68;86.07;98933.34;1788276;78;21069;-74
2020/12/24 13:33:04;;;;;;;16.05;11.63;;;;;;;2.70;86.08;98929.88;1789057;78;21353;-72
2020/12/24 13:38:22;;;;;;;18.30;11.22;;;;;;;2.69;86.19;98923.48;1819857;77;23359;-73
2020/12/24 13:40:52;;;;;;;14.75;10.70;;;;;;;2.67;86.25;98929.08;1729454;81;21167;-71
2020/12/24 13:43:22;;;;;;;14.50;10.55;;;;;;;2.68;86.17;98923.92;1766057;81;21170;-72
2020/12/24 13:45:50;;;;;;;12.37;9.48;;;;;;;2.68;86.21;98918.78;1756476;81;21586;-69
2020/12/24 13:48:18;;;;;;;13.95;10.20;;;;;;;2.72;86.27;98924.72;1787591;80;21051;-68
2020/12/24 13:50:47;;;;;;;13.90;10.75;;;;;;;2.75;86.28;98929.80;1756520;81;21146;-69
2020/12/24 13:53:17;;;;;;;13.43;9.85;;;;;;;2.78;86.05;98928.46;1766177;81;20979;-68
2020/12/24 13:55:45;;;;;;;13.10;10.63;;;;;;;2.75;86.02;98917.80;1756457;81;21249;-69
2020/12/24 13:58:13;;;;;;;12.53;9.48;;;;;;;2.74;86.02;98912.70;1766044;81;21075;-70
2020/12/24 14:00:41;;;;;;;14.13;10.35;;;;;;;2.74;85.94;98912.27;1756377;81;21005;-68
2020/12/24 14:03:09;;;;;;;15.08;10.68;;;;;;;2.71;86.00;98902.48;1748316;81;21215;-70
2020/12/24 14:05:40;;;;;;;19.00;12.28;;;;;;;2.71;86.10;98903.77;1738122;81;21172;-69
2020/12/24 14:08:10;;;;;;;16.07;10.63;;;;;;;2.73;86.17;98902.02;1736263;82;21177;-68
2020/12/24 14:10:39;;;;;;;17.80;11.38;;;;;;;2.76;86.16;98910.52;1735719;82;21246;-69
2020/12/24 14:13:07;;;;;;;14.55;10.40;;;;;;;2.75;85.96;98905.41;1735718;82;21081;-70
2020/12/24 14:15:35;;;;;;;16.02;11.78;;;;;;;2.70;85.92;98909.77;1736893;81;21098;-69
2020/12/24 14:18:03;;;;;;;20.48;12.13;;;;;;;2.66;86.14;98901.71;1707169;82;21495;-68
2020/12/24 14:20:31;;;;;;;15.35;11.68;;;;;;;2.65;86.23;98899.58;1704835;84;21225;-68
2020/12/24 14:23:01;;;;;;;21.20;15.63;;;;;;;2.64;86.27;98900.89;1704683;84;21162;-69
2020/12/24 14:25:30;;;;;;;21.80;14.10;;;;;;;2.64;86.36;98899.61;1679012;84;21179;-69
2020/12/24 14:28:01;;;;;;;25.20;16.87;;;;;;;2.66;86.46;98894.86;1711613;81;21198;-68
2020/12/24 14:30:29;;;;;;;24.50;14.95;;;;;;;2.68;86.43;98889.69;1734647;81;21094;-69
2020/12/24 14:33:01;;;;;;;24.00;15.50;;;;;;;2.70;86.52;98887.95;1734031;82;21207;-68
2020/12/24 14:35:30;;;;;;;19.98;14.47;;;;;;;2.69;86.40;98888.82;1724161;82;21135;-69
2020/12/24 14:37:59;;;;;;;20.43;14.80;;;;;;;2.67;86.40;98879.02;1745958;81;21224;-67
2020/12/24 14:40:31;;;;;;;20.05;13.22;;;;;;;2.66;86.61;98878.17;1750668;80;21832;-68
2020/12/24 14:42:58;;;;;;;19.70;13.08;;;;;;;2.66;86.44;98875.59;1707266;82;21645;-68
2020/12/24 14:45:27;;;;;;;14.58;11.25;;;;;;;2.65;86.64;98870.48;1721511;82;21372;-68
2020/12/24 14:47:55;;;;;;;20.75;12.95;;;;;;;2.66;86.68;98870.91;1712035;83;21112;-68
2020/12/24 14:50:26;;;;;;;18.73;12.75;;;;;;;2.66;86.79;98873.03;1699413;82;21067;-68
2020/12/24 14:52:58;;;;;;;18.50;13.25;;;;;;;2.66;86.90;98872.19;1728131;82;21076;-68
2020/12/24 14:55:26;;;;;;;17.77;12.13;;;;;;;2.65;86.88;98871.34;1699759;82;21165;-68
2020/12/24 14:57:55;;;;;;;14.58;10.10;;;;;;;2.67;86.93;98874.72;1733233;81;22909;-69
2020/12/24 15:00:23;;;;;;;16.42;11.43;;;;;;;2.68;87.02;98873.85;1744895;82;21112;-69
2020/12/24 15:02:50;;;;;;;16.57;11.68;;;;;;;2.71;87.12;98875.08;1763625;79;21191;-70
2020/12/24 15:05:19;;;;;;;14.98;10.38;;;;;;;2.76;87.06;98875.84;1775017;80;21125;-69
2020/12/24 15:07:47;;;;;;;15.98;10.60;;;;;;;2.77;87.13;98874.13;1750385;82;21173;-69
2020/12/24 15:10:14;;;;;;;15.78;10.68;;;;;;;2.81;87.02;98868.46;1750109;82;21206;-70
2020/12/24 15:12:44;;;;;;;15.58;11.45;;;;;;;2.86;87.06;98864.09;1750608;82;21114;-69
2020/12/24 15:15:12;;;;;;;16.02;10.93;;;;;;;2.87;87.02;98862.78;1750076;81;21153;-70
2020/12/24 15:17:42;;;;;;;17.85;13.30;;;;;;;2.89;86.95;98855.89;1750565;80;21525;-70
2020/12/24 15:20:10;;;;;;;15.75;11.22;;;;;;;2.89;86.88;98849.91;1750604;82;21120;-70
2020/12/24 15:22:38;;;;;;;13.68;10.58;;;;;;;2.88;86.84;98847.78;1749558;81;22493;-71
2020/12/24 15:25:06;;;;;;;13.93;9.63;;;;;;;2.88;86.84;98834.09;1750600;81;21084;-72
2020/12/24 15:27:34;;;;;;;11.10;8.45;;;;;;;2.89;86.77;98841.77;1750876;82;21463;-70
2020/12/24 15:30:01;;;;;;;15.70;10.65;;;;;;;2.88;86.80;98840.07;1750572;80;21124;-76
2020/12/24 15:32:29;;;;;;;22.67;13.13;;;;;;;2.88;86.83;98836.22;1750688;82;21156;-72
2020/12/24 15:34:57;;;;;;;13.68;9.73;;;;;;;2.88;86.86;98831.08;1750728;81;21368;-72
2020/12/24 15:37:24;;;;;;;18.00;11.48;;;;;;;2.88;86.81;98832.80;1750481;82;21509;-78
2020/12/24 15:39:51;;;;;;;15.40;10.35;;;;;;;2.87;86.86;98835.81;1750758;82;21719;-76
2020/12/24 15:42:19;;;;;;;13.70;9.03;;;;;;;2.88;86.90;98827.23;1750865;81;21120;-72
2020/12/24 15:44:46;;;;;;;11.73;9.03;;;;;;;2.88;86.92;98823.81;1750968;82;21074;-74
2020/12/24 15:47:14;;;;;;;12.33;9.03;;;;;;;2.89;87.05;98827.64;1750943;82;21391;-80
2020/12/24 15:49:42;;;;;;;13.83;10.15;;;;;;;2.92;86.86;98817.74;1750601;82;21544;-76
2020/12/24 15:52:09;;;;;;;12.13;8.68;;;;;;;2.93;86.72;98814.30;1750847;82;21569;-71
2020/12/24 15:54:37;;;;;;;14.18;8.88;;;;;;;2.93;86.74;98811.73;1750775;82;21502;-74
2020/12/24 15:57:05;;;;;;;10.03;8.10;;;;;;;2.96;86.92;98813.80;1750687;82;21127;-73
2020/12/24 15:59:32;;;;;;;11.93;8.58;;;;;;;3.00;86.68;98815.40;1722024;82;22012;-72
2020/12/24 16:02:01;;;;;;;11.57;8.78;;;;;;;3.05;86.73;98820.01;1750574;81;21169;-69
2020/12/24 16:04:29;;;;;;;11.35;8.35;;;;;;;3.10;86.47;98816.06;1750719;82;21144;-76
2020/12/24 16:06:57;;;;;;;12.53;9.60;;;;;;;3.10;86.20;98819.91;1750715;81;21069;-73
2020/12/24 16:09:25;;;;;;;11.90;8.70;;;;;;;3.08;86.20;98819.95;1750708;81;21064;-78
2020/12/24 16:11:53;;;;;;;13.98;10.68;;;;;;;3.10;86.23;98810.92;1750677;82;21205;-77
2020/12/24 16:14:20;;;;;;;12.68;9.50;;;;;;;3.09;86.20;98809.23;1750574;81;21199;-71
2020/12/24 16:16:48;;;;;;;14.23;10.50;;;;;;;3.12;86.39;98813.02;1750688;80;21180;-71
2020/12/24 16:19:16;;;;;;;12.58;9.05;;;;;;;3.20;86.28;98815.44;1750703;82;21057;-67
2020/12/24 16:21:45;;;;;;;12.45;9.53;;;;;;;3.21;85.90;98815.81;1750693;82;21102;-74
2020/12/24 16:24:13;;;;;;;15.03;10.70;;;;;;;3.23;86.03;98814.05;1750729;81;21367;-71